Time;durP1;ratioP1;P1;durP2;ratioP2;P2;SDS_P1;SDS_P2;PMS_P1;PMS_P2;Temp;Humidity;BMP_temperature;BMP_pressure;BME280_temperature;BME280_humidity;BME280_pressure;Samples;Min_cycle;Max_cycle;Signal;HPM_P1;HPM_P2
2022/03/21 00:05:34;;;;;;;74.35;40.65;;;76.90;2022.40;;;;;;4711466;30;20042;-81
2022/03/21 00:09:14;;;;;;;96.03;52.85;;;51.70;2073.60;;;;;;4742391;30;20047;-82
2022/03/21 00:26:06;;;;;;;156.48;76.18;;;76.80;2048.00;;;;;;4807827;29;20041;-82
2022/03/21 00:29:56;;;;;;;197.30;104.40;;;76.80;2048.00;;;;;;4857904;29;20037;-82
2022/03/21 00:33:03;;;;;;;183.70;107.82;;;52.00;2073.60;;;;;;4840538;29;20095;-81
2022/03/21 00:36:44;;;;;;;90.28;52.35;;;52.10;2048.00;;;;;;4852155;29;20033;-83
2022/03/21 00:42:22;;;;;;;79.07;39.88;;;51.40;2099.20;;;;;;4936949;29;20040;-87
2022/03/21 00:44:48;;;;;;;70.40;37.67;;;51.70;2073.60;;;;;;4942991;29;20254;-85
2022/03/21 00:47:24;;;;;;;73.10;40.50;;;51.50;2048.00;;;;;;4936982;29;20031;-85
2022/03/21 00:49:52;;;;;;;78.72;41.65;;;51.50;2073.60;;;;;;4920332;29;20031;-84
2022/03/21 00:52:21;;;;;;;66.05;36.50;;;51.50;2073.60;;;;;;4921720;29;20083;-89
2022/03/21 00:54:47;;;;;;;52.92;27.85;;;51.50;2048.00;;;;;;4921227;29;20390;-84
2022/03/21 00:57:13;;;;;;;65.70;37.28;;;51.20;2099.20;;;;;;4920995;29;20386;-91
2022/03/21 00:59:39;;;;;;;66.25;31.90;;;51.20;2099.20;;;;;;4920791;29;20032;-93
2022/03/21 01:02:05;;;;;;;60.47;31.58;;;26.50;2073.60;;;;;;4920933;29;20027;-89
2022/03/21 01:04:42;;;;;;;67.10;35.83;;;51.30;2099.20;;;;;;4921117;29;20087;-90
2022/03/21 01:07:14;;;;;;;72.85;38.75;;;51.30;2099.20;;;;;;4920997;29;20024;-89
2022/03/21 01:09:48;;;;;;;86.38;45.90;;;26.50;2073.60;;;;;;4920277;29;20087;-90
2022/03/21 01:12:14;;;;;;;96.03;49.30;;;26.40;2099.20;;;;;;4920985;29;20055;-90
2022/03/21 01:14:41;;;;;;;79.95;44.60;;;26.50;2099.20;;;;;;4920991;29;20034;-88
2022/03/21 01:17:10;;;;;;;66.22;37.13;;;26.50;2099.20;;;;;;4920917;29;20024;-90
2022/03/21 01:19:36;;;;;;;78.93;41.00;;;26.40;2099.20;;;;;;4920780;29;20155;-89
2022/03/21 01:22:02;;;;;;;78.93;42.03;;;26.40;2124.80;;;;;;4920751;29;20051;-89
2022/03/21 01:24:28;;;;;;;69.47;37.38;;;51.20;2124.80;;;;;;4920686;29;20030;-89
2022/03/21 01:26:54;;;;;;;56.33;30.30;;;26.30;2124.80;;;;;;4920344;29;20406;-90
2022/03/21 01:29:20;;;;;;;58.90;29.65;;;26.20;2150.40;;;;;;4920753;29;20110;-88
2022/03/21 01:31:46;;;;;;;60.10;32.40;;;26.00;2150.40;;;;;;4920716;29;20023;-88
2022/03/21 01:34:12;;;;;;;61.72;30.70;;;25.90;2176.00;;;;;;4920418;29;20019;-88
2022/03/21 01:36:37;;;;;;;79.38;35.22;;;25.90;2176.00;;;;;;4920779;29;20034;-89
2022/03/21 01:39:04;;;;;;;65.45;32.13;;;26.10;2176.00;;;;;;4920528;29;20039;-87
2022/03/21 01:41:30;;;;;;;68.88;31.80;;;26.10;2176.00;;;;;;4873347;29;1387579;-89
2022/03/21 01:44:00;;;;;;;60.75;30.55;;;26.30;2150.40;;;;;;4921287;29;20061;-87
2022/03/21 01:46:27;;;;;;;42.70;23.98;;;26.00;2150.40;;;;;;4920650;29;20027;-88
2022/03/21 01:48:54;;;;;;;60.47;29.73;;;26.10;2150.40;;;;;;4920595;29;20102;-87
2022/03/21 01:51:20;;;;;;;64.68;31.73;;;26.20;2150.40;;;;;;4920883;29;20446;-89
2022/03/21 01:56:31;;;;;;;80.70;40.80;;;26.00;2176.00;;;;;;4937841;29;20038;-86
2022/03/21 01:58:57;;;;;;;85.65;44.28;;;26.10;2176.00;;;;;;4920832;29;20114;-88
2022/03/21 02:01:24;;;;;;;84.55;46.35;;;26.00;2176.00;;;;;;4920741;29;20024;-86
2022/03/21 02:03:50;;;;;;;76.45;43.10;;;26.20;2176.00;;;;;;4920385;29;20034;-88
2022/03/21 02:06:16;;;;;;;74.95;42.63;;;26.20;2176.00;;;;;;4920865;29;20478;-86
2022/03/21 02:08:44;;;;;;;93.40;50.15;;;26.40;2150.40;;;;;;4920921;29;20028;-87
2022/03/21 02:11:10;;;;;;;91.80;52.45;;;26.30;2150.40;;;;;;4920445;29;20024;-90
2022/03/21 02:13:36;;;;;;;67.75;36.03;;;26.00;2201.60;;;;;;4920811;29;20110;-88
2022/03/21 02:16:04;;;;;;;52.75;30.95;;;0.90;2201.60;;;;;;4920734;29;20020;-89
2022/03/21 02:18:31;;;;;;;52.72;26.90;;;25.90;2201.60;;;;;;4920795;29;20036;-89
2022/03/21 02:21:00;;;;;;;46.08;26.08;;;26.00;2176.00;;;;;;4924605;29;20418;-86
2022/03/21 02:23:45;;;;;;;45.90;25.23;;;25.90;2176.00;;;;;;4923769;29;20114;-87
2022/03/21 02:26:13;;;;;;;50.63;27.42;;;25.90;2176.00;;;;;;4921056;29;20035;-87
2022/03/21 02:28:40;;;;;;;45.50;24.17;;;25.90;2176.00;;;;;;4920367;29;20058;-87
2022/03/21 02:31:06;;;;;;;43.97;23.45;;;25.80;2176.00;;;;;;4920741;29;20087;-86
2022/03/21 02:33:32;;;;;;;54.97;30.48;;;0.90;2201.60;;;;;;4920443;29;20418;-90
2022/03/21 02:35:59;;;;;;;58.47;31.90;;;0.80;2201.60;;;;;;4920535;29;20028;-88
2022/03/21 02:38:26;;;;;;;57.38;31.05;;;0.90;2201.60;;;;;;4920226;29;20473;-88
2022/03/21 02:40:53;;;;;;;52.20;29.02;;;25.60;2176.00;;;;;;4920073;29;20050;-89
2022/03/21 02:43:18;;;;;;;55.53;32.22;;;0.80;2201.60;;;;;;4920148;29;20024;-87
2022/03/21 02:45:44;;;;;;;55.58;28.40;;;0.80;2201.60;;;;;;4919924;29;20024;-89
2022/03/21 02:48:14;;;;;;;40.42;23.45;;;0.80;2201.60;;;;;;4920424;29;20097;-89
2022/03/21 02:50:55;;;;;;;44.85;24.05;;;0.70;2201.60;;;;;;4920232;29;20115;-86
2022/03/21 02:53:22;;;;;;;63.95;30.92;;;0.70;2201.60;;;;;;4920450;29;20114;-85
2022/03/21 02:55:56;;;;;;;48.75;27.30;;;0.80;2201.60;;;;;;4920154;29;20024;-88
2022/03/21 02:58:22;;;;;;;59.53;27.45;;;0.80;2201.60;;;;;;4920203;29;20055;-88
2022/03/21 03:00:49;;;;;;;49.50;30.20;;;0.40;2201.60;;;;;;4920315;29;20024;-87
2022/03/21 03:03:15;;;;;;;67.63;36.50;;;0.50;2201.60;;;;;;4920156;29;20063;-88
2022/03/21 03:05:41;;;;;;;46.28;27.13;;;0.60;2201.60;;;;;;4919972;29;20027;-90
2022/03/21 03:08:07;;;;;;;50.45;28.08;;;0.40;2201.60;;;;;;4920011;29;20031;-87
2022/03/21 03:10:33;;;;;;;40.25;21.15;;;0.40;2201.60;;;;;;4920316;29;20390;-88
2022/03/21 03:12:59;;;;;;;44.35;22.92;;;0.40;2201.60;;;;;;4921014;29;20473;-87
2022/03/21 03:15:25;;;;;;;60.67;28.52;;;0.40;2201.60;;;;;;4924459;29;20118;-89
2022/03/21 03:17:51;;;;;;;55.60;28.80;;;0.40;2201.60;;;;;;4925707;29;20039;-89
2022/03/21 03:20:17;;;;;;;41.33;24.23;;;0.40;2201.60;;;;;;4925367;29;20124;-89
2022/03/21 03:22:43;;;;;;;50.88;27.63;;;0.40;2201.60;;;;;;4923575;29;20038;-88
2022/03/21 03:25:10;;;;;;;42.13;23.85;;;0.30;2201.60;;;;;;4923489;29;20122;-89
2022/03/21 03:27:36;;;;;;;31.30;20.15;;;0.10;2201.60;;;;;;4923330;29;20114;-86
2022/03/21 03:30:02;;;;;;;39.75;22.23;;;0.10;2201.60;;;;;;4923626;29;20115;-86
2022/03/21 03:32:29;;;;;;;39.80;20.40;;;12.90;2201.60;;;;;;4923403;29;20023;-88
2022/03/21 03:34:55;;;;;;;29.70;17.55;;;13.20;2201.60;;;;;;4923501;29;20055;-86
2022/03/21 03:37:21;;;;;;;29.70;18.55;;;13.10;2201.60;;;;;;4923097;29;20031;-88
2022/03/21 03:39:47;;;;;;;38.35;20.85;;;13.00;2201.60;;;;;;4923466;29;20032;-88
2022/03/21 03:42:14;;;;;;;45.35;22.08;;;12.90;2201.60;;;;;;4902008;29;20048;-88
2022/03/21 03:47:32;;;;;;;41.53;21.33;;;12.90;2201.60;;;;;;4901288;29;20435;-87
2022/03/21 03:50:00;;;;;;;27.80;16.73;;;12.90;2201.60;;;;;;4900899;29;20509;-87
2022/03/21 03:52:26;;;;;;;27.95;17.20;;;0.00;2201.60;;;;;;4885164;29;20035;-86
2022/03/21 03:54:52;;;;;;;31.98;17.23;;;13.00;2201.60;;;;;;4900743;29;20108;-87
2022/03/21 03:57:25;;;;;;;36.90;19.27;;;12.90;2201.60;;;;;;4900747;29;20095;-90
2022/03/21 04:00:07;;;;;;;37.00;18.30;;;12.90;2201.60;;;;;;4900691;29;20467;-86
2022/03/21 04:03:44;;;;;;;28.65;18.00;;;13.00;2201.60;;;;;;4886909;29;20040;-87
2022/03/21 04:05:21;;;;;;;33.70;17.17;;;12.90;2201.60;;;;;;4901436;29;20023;-89
2022/03/21 04:07:49;;;;;;;33.03;19.17;;;0.00;2201.60;;;;;;4900558;29;20378;-88
2022/03/21 04:10:15;;;;;;;30.75;18.90;;;12.90;2201.60;;;;;;4900603;29;20024;-89
2022/03/21 04:12:43;;;;;;;28.98;18.23;;;0.00;2201.60;;;;;;4900762;29;20029;-88
2022/03/21 04:15:10;;;;;;;28.08;15.98;;;12.90;2201.60;;;;;;4900373;29;20539;-86
2022/03/21 04:17:36;;;;;;;30.13;15.07;;;0.10;2201.60;;;;;;4900480;29;20037;-88
2022/03/21 04:20:03;;;;;;;32.20;16.83;;;0.40;2201.60;;;;;;4900529;29;20031;-88
2022/03/21 04:22:35;;;;;;;24.02;15.05;;;0.10;2201.60;;;;;;4900286;29;20123;-87
2022/03/21 04:25:21;;;;;;;29.15;19.15;;;13.00;2201.60;;;;;;4901071;29;20467;-90
2022/03/21 04:27:47;;;;;;;34.45;19.48;;;0.00;2201.60;;;;;;4884934;29;20028;-86
2022/03/21 04:30:15;;;;;;;26.73;17.48;;;13.20;2201.60;;;;;;4884144;29;20048;-88
2022/03/21 04:32:46;;;;;;;26.83;17.02;;;13.10;2201.60;;;;;;4885879;29;20028;-88
2022/03/21 04:35:13;;;;;;;29.10;18.35;;;13.10;2201.60;;;;;;4900167;29;20031;-88
2022/03/21 04:37:39;;;;;;;30.48;16.40;;;13.10;2201.60;;;;;;4884515;29;20064;-88
2022/03/21 04:40:07;;;;;;;33.03;17.95;;;12.90;2201.60;;;;;;4902089;29;20025;-88
2022/03/21 04:42:34;;;;;;;35.78;20.05;;;13.00;2201.60;;;;;;4922802;29;20023;-87
2022/03/21 04:45:01;;;;;;;41.13;20.27;;;13.00;2201.60;;;;;;4934495;29;20019;-87
2022/03/21 04:47:27;;;;;;;37.65;18.88;;;13.00;2201.60;;;;;;4937824;29;20032;-87
2022/03/21 04:51:10;;;;;;;28.70;15.52;;;13.00;2201.60;;;;;;4926775;29;20030;-86
2022/03/21 04:53:41;;;;;;;29.00;15.05;;;13.10;2201.60;;;;;;4852201;29;20037;-87
2022/03/21 04:59:11;;;;;;;23.33;16.13;;;13.00;2201.60;;;;;;4861990;29;20048;-86
2022/03/21 05:01:37;;;;;;;27.20;16.55;;;0.00;2201.60;;;;;;4900348;29;20031;-89
2022/03/21 05:04:25;;;;;;;28.30;16.67;;;0.10;2201.60;;;;;;4921540;29;20024;-88
2022/03/21 05:07:20;;;;;;;30.30;16.25;;;0.20;2201.60;;;;;;4927296;29;20027;-88
2022/03/21 05:09:48;;;;;;;31.35;19.77;;;0.10;2201.60;;;;;;4938222;29;20411;-90
2022/03/21 05:12:17;;;;;;;32.45;20.98;;;0.20;2201.60;;;;;;4938363;29;20102;-86
2022/03/21 05:14:43;;;;;;;57.05;31.20;;;0.40;2201.60;;;;;;4905830;29;20024;-88
2022/03/21 05:17:11;;;;;;;60.92;32.30;;;0.10;2201.60;;;;;;4921835;29;20030;-88
2022/03/21 05:19:39;;;;;;;75.10;37.35;;;0.40;2201.60;;;;;;4921119;29;20031;-88
2022/03/21 05:32:36;;;;;;;122.70;58.40;;;0.10;2201.60;;;;;;4880016;29;20765;-87
2022/03/21 05:38:45;;;;;;;96.65;45.30;;;0.20;2201.60;;;;;;4880780;29;20375;-88
2022/03/21 05:44:57;;;;;;;67.15;39.95;;;0.10;2201.60;;;;;;4880160;29;20035;-87
2022/03/21 05:53:33;;;;;;;95.22;49.10;;;0.10;2201.60;;;;;;4918501;29;20469;-88
2022/03/21 06:00:20;;;;;;;76.80;37.40;;;12.90;2201.60;;;;;;4918164;29;20038;-87
2022/03/21 06:02:26;;;;;;;68.15;35.00;;;0.10;2201.60;;;;;;4904586;29;20039;-87
2022/03/21 06:05:00;;;;;;;60.30;29.05;;;0.10;2201.60;;;;;;4917593;29;20016;-85
2022/03/21 06:08:09;;;;;;;70.07;32.40;;;12.90;2201.60;;;;;;4918320;29;20043;-87
2022/03/21 06:11:08;;;;;;;71.53;32.67;;;0.10;2201.60;;;;;;4907428;29;20123;-87
2022/03/21 06:14:14;;;;;;;64.15;32.17;;;0.10;2201.60;;;;;;4892212;29;20036;-85
2022/03/21 06:17:00;;;;;;;68.43;35.30;;;0.00;2201.60;;;;;;4916922;29;20044;-87
2022/03/21 06:19:28;;;;;;;78.78;37.35;;;0.10;2201.60;;;;;;4918463;29;20052;-86
2022/03/21 06:21:58;;;;;;;62.30;29.92;;;0.10;2201.60;;;;;;4918149;29;20024;-86
2022/03/21 06:37:54;;;;;;;45.00;28.23;;;0.40;2201.60;;;;;;4918540;29;19913;-88
2022/03/21 06:40:23;;;;;;;60.35;34.92;;;0.60;2201.60;;;;;;4920508;29;20486;-88
2022/03/21 06:42:49;;;;;;;39.38;24.85;;;0.60;2201.60;;;;;;4922828;29;20038;-89
2022/03/21 06:45:17;;;;;;;41.65;25.52;;;0.60;2201.60;;;;;;4923187;29;20019;-88
2022/03/21 06:47:43;;;;;;;44.33;25.90;;;0.60;2201.60;;;;;;4922530;29;20043;-89
2022/03/21 06:50:10;;;;;;;84.57;44.55;;;25.60;2201.60;;;;;;4923133;29;20027;-88
2022/03/21 06:52:38;;;;;;;74.53;38.67;;;26.00;2201.60;;;;;;4923443;29;20024;-88
2022/03/21 06:55:24;;;;;;;63.35;35.30;;;26.20;2201.60;;;;;;4923735;29;20038;-90
2022/03/21 06:57:50;;;;;;;67.03;35.40;;;26.40;2201.60;;;;;;4923177;29;20019;-92
2022/03/21 07:00:17;;;;;;;92.30;50.85;;;51.20;2227.20;;;;;;4923664;29;20035;-87
2022/03/21 07:02:44;;;;;;;67.03;36.70;;;51.20;2227.20;;;;;;4921557;29;20031;-88
2022/03/21 07:05:11;;;;;;;61.15;35.75;;;26.50;2201.60;;;;;;4920713;29;20119;-89
2022/03/21 07:07:37;;;;;;;57.47;36.65;;;51.30;2227.20;;;;;;4937920;29;20055;-87
2022/03/21 07:10:09;;;;;;;58.42;35.28;;;51.30;2227.20;;;;;;4920885;29;20024;-88
2022/03/21 07:12:35;;;;;;;65.68;38.60;;;51.40;2227.20;;;;;;4922706;29;20090;-89
2022/03/21 07:15:02;;;;;;;57.70;38.95;;;51.60;2227.20;;;;;;4923147;29;20024;-89
2022/03/21 07:17:28;;;;;;;55.63;33.58;;;51.80;2227.20;;;;;;4921448;29;20028;-90
2022/03/21 07:19:54;;;;;;;54.58;33.00;;;51.80;2227.20;;;;;;4921062;29;20504;-87
2022/03/21 07:22:23;;;;;;;56.35;34.15;;;52.00;2227.20;;;;;;4926738;29;20024;-87
2022/03/21 07:25:26;;;;;;;54.70;37.95;;;52.10;2227.20;;;;;;4931995;29;20023;-88
2022/03/21 07:27:53;;;;;;;38.38;25.17;;;77.00;2227.20;;;;;;4933443;29;20115;-86
2022/03/21 07:30:19;;;;;;;41.35;27.80;;;77.20;2201.60;;;;;;4934090;29;20031;-87
2022/03/21 07:32:45;;;;;;;47.13;28.80;;;77.30;2201.60;;;;;;4933674;29;20024;-88
2022/03/21 07:35:13;;;;;;;50.72;32.67;;;77.40;2227.20;;;;;;4933183;29;20028;-87
2022/03/21 07:37:50;;;;;;;55.25;32.65;;;77.40;2201.60;;;;;;4932966;29;20028;-86
2022/03/21 07:40:17;;;;;;;49.97;29.90;;;77.50;2201.60;;;;;;4930798;29;20123;-88
2022/03/21 07:42:51;;;;;;;58.15;34.38;;;77.60;2176.00;;;;;;4920111;29;20039;-86
2022/03/21 07:48:27;;;;;;;51.38;33.92;;;102.50;2150.40;;;;;;4958459;29;20039;-91
2022/03/21 07:50:59;;;;;;;52.90;33.65;;;102.70;2124.80;;;;;;4920326;29;20019;-88
2022/03/21 07:53:25;;;;;;;56.88;34.30;;;103.20;2099.20;;;;;;4920609;29;20043;-86
2022/03/21 07:55:51;;;;;;;46.15;27.00;;;102.80;2048.00;;;;;;4919944;29;20016;-89
2022/03/21 07:58:17;;;;;;;32.85;22.67;;;102.90;2022.40;;;;;;4920658;29;20067;-90
2022/03/21 08:00:46;;;;;;;36.95;22.48;;;102.90;1945.60;;;;;;4923704;29;20501;-89
2022/03/21 08:03:45;;;;;;;33.95;21.25;;;103.10;1945.60;;;;;;4923371;29;20027;-89
2022/03/21 08:06:14;;;;;;;31.35;19.83;;;103.20;1920.00;;;;;;4893998;29;20039;-90
2022/03/21 08:09:00;;;;;;;33.63;19.85;;;103.30;1868.80;;;;;;4923644;29;20111;-90
2022/03/21 08:11:26;;;;;;;30.55;18.45;;;128.20;1894.40;;;;;;4923343;29;20020;-89
2022/03/21 08:14:04;;;;;;;24.73;16.65;;;128.30;1894.40;;;;;;4923117;29;20030;-87
2022/03/21 08:16:30;;;;;;;28.23;18.10;;;128.50;1868.80;;;;;;4922912;29;20055;-86
2022/03/21 08:18:57;;;;;;;25.67;17.23;;;128.50;1843.20;;;;;;4922690;29;20034;-90
2022/03/21 08:21:23;;;;;;;32.47;20.45;;;128.70;1843.20;;;;;;4922891;29;20023;-89
2022/03/21 08:23:49;;;;;;;34.85;20.42;;;128.80;1817.60;;;;;;4922704;29;20377;-88
2022/03/21 08:26:16;;;;;;;34.53;20.98;;;128.90;1792.00;;;;;;4922601;29;20027;-87
2022/03/21 08:28:45;;;;;;;27.25;18.35;;;153.70;1792.00;;;;;;4923076;29;20027;-87
2022/03/21 08:31:12;;;;;;;26.33;17.75;;;153.80;1740.80;;;;;;4939335;29;20047;-88
2022/03/21 08:33:38;;;;;;;31.30;20.67;;;154.00;1740.80;;;;;;4922868;29;20043;-90
2022/03/21 08:36:04;;;;;;;26.58;18.83;;;154.20;1715.20;;;;;;4922331;29;20032;-89
2022/03/21 08:38:30;;;;;;;28.50;19.40;;;154.20;1715.20;;;;;;4922213;29;20118;-89
2022/03/21 08:40:58;;;;;;;31.75;22.45;;;154.20;1715.20;;;;;;4915536;29;20527;-85
2022/03/21 08:43:25;;;;;;;37.00;25.88;;;154.40;1689.60;;;;;;4900071;29;20135;-87
2022/03/21 08:45:51;;;;;;;35.95;22.67;;;154.50;1715.20;;;;;;4900132;29;20028;-83
2022/03/21 08:48:17;;;;;;;23.77;15.80;;;179.40;1664.00;;;;;;4900598;29;20111;-84
2022/03/21 08:50:43;;;;;;;24.25;15.15;;;179.60;1638.40;;;;;;4901593;29;20067;-83
2022/03/21 08:53:10;;;;;;;23.23;16.50;;;179.70;1638.40;;;;;;4901258;29;20132;-82
2022/03/21 08:55:36;;;;;;;24.73;16.90;;;179.70;1638.40;;;;;;4899956;29;20024;-80
2022/03/21 08:58:01;;;;;;;26.02;17.70;;;179.70;1638.40;;;;;;4900370;29;20077;-85
2022/03/21 09:01:00;;;;;;;23.95;15.95;;;180.00;1612.80;;;;;;4900206;29;20031;-85
2022/03/21 09:03:35;;;;;;;27.77;17.05;;;204.80;1587.20;;;;;;4888846;29;20395;-89
2022/03/21 09:06:22;;;;;;;27.48;17.85;;;204.80;1587.20;;;;;;4900574;29;20032;-85
2022/03/21 09:09:30;;;;;;;28.88;18.58;;;204.80;1587.20;;;;;;4899894;29;20025;-85
2022/03/21 09:12:15;;;;;;;25.95;16.20;;;204.90;1561.60;;;;;;4898611;29;20051;-85
2022/03/21 09:34:20;;;;;;;24.48;14.55;;;205.70;1484.80;;;;;;5631475;23;20112;-81
2022/03/21 09:36:47;;;;;;;28.45;16.15;;;205.70;1510.40;;;;;;4883310;29;20028;-84
2022/03/21 09:39:14;;;;;;;20.00;13.43;;;230.40;1510.40;;;;;;4883325;29;20038;-90
2022/03/21 09:42:12;;;;;;;24.05;16.60;;;230.60;1484.80;;;;;;4883576;29;20053;-86
2022/03/21 09:51:03;;;;;;;30.02;19.63;;;230.90;1484.80;;;;;;4900246;29;20023;-83
2022/03/21 09:57:20;;;;;;;34.17;21.13;;;231.10;1459.20;;;;;;4841494;29;20037;-85
2022/03/21 10:00:17;;;;;;;23.95;18.17;;;231.30;1433.60;;;;;;4841538;29;20133;-81
2022/03/21 10:06:41;;;;;;;38.78;23.17;;;231.20;1459.20;;;;;;4841645;29;20033;-86
2022/03/21 10:09:16;;;;;;;35.20;21.50;;;231.00;1459.20;;;;;;4841746;29;20060;-84
2022/03/21 10:12:02;;;;;;;22.33;13.68;;;231.00;1459.20;;;;;;4841592;29;20357;-86
2022/03/21 10:15:13;;;;;;;17.73;12.32;;;231.10;1459.20;;;;;;4881442;29;20033;-82
2022/03/21 10:21:11;;;;;;;25.98;18.02;;;256.20;1433.60;;;;;;4822254;29;20095;-81
2022/03/21 10:23:48;;;;;;;31.65;18.92;;;256.20;1433.60;;;;;;4823534;29;20046;-83
2022/03/21 10:26:28;;;;;;;29.40;20.92;;;256.40;1433.60;;;;;;4880663;29;20084;-84
2022/03/21 10:28:59;;;;;;;30.67;17.98;;;256.70;1433.60;;;;;;4882645;29;20542;-82
2022/03/21 10:55:21;;;;;;;40.85;26.77;;;282.30;1356.80;;;;;;4876843;29;20063;-84
2022/03/21 11:07:54;;;;;;;39.10;24.90;;;308.00;1305.60;;;;;;4879299;29;20573;-78
2022/03/21 11:10:21;;;;;;;29.88;19.08;;;308.10;1331.20;;;;;;4879699;29;20112;-81
2022/03/21 11:12:47;;;;;;;32.60;20.27;;;332.80;1356.80;;;;;;4862967;29;20036;-81
2022/03/21 11:15:14;;;;;;;33.05;22.45;;;333.10;1356.80;;;;;;4862968;29;20036;-82
2022/03/21 11:17:41;;;;;;;28.50;18.83;;;333.30;1305.60;;;;;;4863317;29;20040;-80
2022/03/21 11:20:09;;;;;;;28.23;17.00;;;333.40;1331.20;;;;;;4863068;29;20044;-79
2022/03/21 11:22:42;;;;;;;32.75;20.20;;;333.40;1305.60;;;;;;4862563;29;20045;-83
2022/03/21 11:25:35;;;;;;;27.90;20.02;;;333.70;1305.60;;;;;;4863103;29;20356;-82
2022/03/21 11:28:39;;;;;;;28.20;18.55;;;358.50;1305.60;;;;;;4863235;29;20044;-83
2022/03/21 11:31:42;;;;;;;28.75;17.77;;;358.70;1280.00;;;;;;4861895;29;20081;-84
2022/03/21 11:56:48;;;;;;;36.25;21.60;;;384.70;1228.80;;;;;;4987612;23;19919;-88
2022/03/21 12:00:38;;;;;;;28.98;17.10;;;384.90;1228.80;;;;;;4835297;29;20041;-87
2022/03/21 12:09:52;;;;;;;24.10;16.75;;;409.70;1228.80;;;;;;4883071;29;20115;-88
2022/03/21 12:12:40;;;;;;;33.83;24.83;;;409.80;1228.80;;;;;;4825915;29;20389;-85
2022/03/21 13:40:04;;;;;;;70.63;45.38;;;435.20;1126.40;;;;;;5654996;23;20048;-87
2022/03/21 13:42:39;;;;;;;;;;;435.50;1152.00;;;;;;4925175;29;20027;-82
2022/03/21 13:45:35;;;;;;;37.58;25.38;;;435.60;1100.80;;;;;;4924183;29;19907;-84
2022/03/21 13:48:01;;;;;;;32.08;22.65;;;435.60;1126.40;;;;;;4923985;29;20040;-86
2022/03/21 13:51:04;;;;;;;23.55;18.35;;;435.50;1126.40;;;;;;4924032;29;20020;-87
2022/03/21 13:54:24;;;;;;;45.53;30.58;;;435.50;1152.00;;;;;;4867086;29;20043;-88
2022/03/21 13:56:53;;;;;;;40.38;24.63;;;435.60;1126.40;;;;;;4919821;29;20440;-86
2022/03/21 13:59:21;;;;;;;32.05;21.77;;;435.50;1126.40;;;;;;4921272;29;20088;-83
2022/03/21 14:01:47;;;;;;;42.88;26.55;;;435.50;1126.40;;;;;;4919705;29;20020;-85
2022/03/21 14:05:04;;;;;;;42.83;27.52;;;435.40;1152.00;;;;;;4921290;29;20058;-86
2022/03/21 14:32:27;;;;;;;;;;;;;;;;;;;;;
2022/03/21 14:42:38;;;;;;;28.70;20.38;;;410.20;1152.00;;;;;;4804672;29;20077;-86
2022/03/21 15:16:17;;;;;;;32.33;21.63;;;333.40;1228.80;;;;;;4649699;30;20058;-85
2022/03/21 15:50:18;;;;;;;38.03;23.48;;;307.40;1254.40;;;;;;4667415;30;20045;-88
2022/03/21 15:53:14;;;;;;;24.80;16.13;;;307.30;1254.40;;;;;;4720259;30;20448;-87
2022/03/21 15:55:44;;;;;;;31.02;19.67;;;307.20;1254.40;;;;;;4784253;30;20406;-87
2022/03/21 15:58:19;;;;;;;29.08;19.50;;;307.20;1254.40;;;;;;4849013;29;20134;-88
2022/03/21 16:00:46;;;;;;;33.22;21.58;;;282.50;1228.80;;;;;;4884791;29;20487;-86
2022/03/21 16:03:25;;;;;;;29.00;20.98;;;282.40;1228.80;;;;;;4885656;29;20209;-87
2022/03/21 16:10:14;;;;;;;44.63;32.28;;;282.40;1254.40;;;;;;4825837;29;20474;-86
2022/03/21 16:19:36;;;;;;;46.65;33.47;;;282.10;1254.40;;;;;;4825276;29;20034;-87
2022/03/21 16:22:14;;;;;;;60.28;36.90;;;282.00;1280.00;;;;;;4822834;29;20130;-86
2022/03/21 16:24:51;;;;;;;44.38;32.47;;;282.00;1305.60;;;;;;4822957;29;20034;-86
2022/03/21 16:28:11;;;;;;;46.50;31.92;;;281.90;1305.60;;;;;;4870454;29;20490;-86
2022/03/21 16:31:01;;;;;;;59.92;37.33;;;281.80;1305.60;;;;;;4791020;29;20066;-86
2022/03/21 16:33:50;;;;;;;61.28;36.40;;;281.90;1305.60;;;;;;4806357;29;20031;-83
2022/03/21 16:36:20;;;;;;;62.40;38.75;;;281.60;1331.20;;;;;;4807717;29;20104;-86
2022/03/21 16:38:55;;;;;;;88.10;57.65;;;256.90;1305.60;;;;;;4793521;29;20023;-88
2022/03/21 16:41:24;;;;;;;81.45;51.10;;;256.80;1305.60;;;;;;4834292;29;20037;-88
2022/03/21 16:44:08;;;;;;;71.97;46.88;;;256.80;1305.60;;;;;;4899957;29;20032;-88
2022/03/21 16:47:05;;;;;;;75.57;50.25;;;256.80;1305.60;;;;;;4903823;29;20063;-86
2022/03/21 16:49:33;;;;;;;71.05;48.97;;;256.70;1331.20;;;;;;4918663;29;20040;-89
2022/03/21 17:05:03;;;;;;;95.70;60.45;;;256.30;1356.80;;;;;;4921635;29;20122;-88
2022/03/21 17:11:44;;;;;;;119.53;68.13;;;256.20;1382.40;;;;;;4921116;29;20027;-88
2022/03/21 17:17:47;;;;;;;183.70;100.45;;;256.00;1382.40;;;;;;4920555;29;20565;-86
2022/03/21 17:23:08;;;;;;;116.80;65.38;;;256.00;1408.00;;;;;;4917522;29;20083;-80
2022/03/21 17:26:01;;;;;;;126.97;75.57;;;231.30;1408.00;;;;;;4917341;29;20031;-83
2022/03/21 17:32:16;;;;;;;;;;;;;;;;;;;;;
2022/03/21 17:35:08;;;;;;;111.10;64.65;;;231.20;1408.00;;;;;;4896978;29;20044;-84
2022/03/21 17:48:47;;;;;;;160.05;86.13;;;231.10;1408.00;;;;;;4792826;29;20058;-85
2022/03/21 18:06:39;;;;;;;96.13;63.13;;;230.90;1433.60;;;;;;4771743;30;20038;-85
2022/03/21 18:09:30;;;;;;;67.65;45.33;;;230.90;1433.60;;;;;;4735200;30;20130;-84
2022/03/21 18:12:07;;;;;;;69.43;49.60;;;230.90;1433.60;;;;;;4731275;30;20396;-87
2022/03/21 18:15:49;;;;;;;62.90;46.28;;;230.90;1459.20;;;;;;4697117;30;20045;-85
2022/03/21 18:22:50;;;;;;;72.85;50.03;;;230.90;1459.20;;;;;;4736426;30;20086;-87
2022/03/21 18:26:20;;;;;;;60.15;41.83;;;230.90;1459.20;;;;;;4701965;30;20025;-87
2022/03/21 18:29:40;;;;;;;61.35;40.15;;;230.90;1459.20;;;;;;4700209;30;20038;-84
2022/03/21 18:32:46;;;;;;;73.53;47.08;;;230.90;1459.20;;;;;;4679564;30;20133;-85
2022/03/21 18:36:26;;;;;;;159.85;87.05;;;230.90;1433.60;;;;;;4663722;30;20097;-85
2022/03/21 18:39:12;;;;;;;94.60;59.33;;;230.90;1459.20;;;;;;4636692;30;20036;-85
2022/03/21 18:42:37;;;;;;;85.63;56.22;;;230.90;1459.20;;;;;;4647146;30;20105;-87
2022/03/21 18:45:56;;;;;;;74.55;46.28;;;230.90;1459.20;;;;;;4649963;30;20108;-87
2022/03/21 18:48:41;;;;;;;82.43;53.83;;;230.80;1459.20;;;;;;4694688;30;20128;-83
2022/03/21 18:52:17;;;;;;;119.22;75.38;;;230.90;1459.20;;;;;;4685409;30;20038;-87
2022/03/21 18:55:09;;;;;;;83.18;57.72;;;230.80;1459.20;;;;;;4724851;30;20418;-86
2022/03/21 20:20:56;;;;;;;589.58;261.90;;;204.90;1664.00;;;;;;4827165;29;20007;-87
2022/03/21 20:24:24;;;;;;;419.85;186.57;;;204.80;1664.00;;;;;;4718958;30;20041;-87
2022/03/21 20:42:02;;;;;;;47.92;30.20;;;204.80;1664.00;;;;;;4633699;31;20534;-87
2022/03/21 20:45:37;;;;;;;76.20;47.95;;;204.80;1664.00;;;;;;4616968;31;20108;-86
2022/03/21 20:49:11;;;;;;;135.68;83.68;;;180.10;1664.00;;;;;;4634068;30;20055;-88
2022/03/21 20:52:34;;;;;;;277.13;166.68;;;180.10;1689.60;;;;;;4667809;30;20050;-87
2022/03/21 21:05:49;;;;;;;340.05;158.07;;;179.90;1715.20;;;;;;4718990;30;20087;-86
2022/03/21 21:08:30;;;;;;;364.98;180.40;;;179.60;1715.20;;;;;;4710777;30;20114;-85
2022/03/21 21:11:03;;;;;;;364.42;211.65;;;179.40;1740.80;;;;;;4764874;30;20034;-86
2022/03/21 21:13:38;;;;;;;378.98;224.90;;;179.50;1740.80;;;;;;4790082;30;20035;-85
2022/03/21 21:16:27;;;;;;;332.35;202.05;;;179.50;1740.80;;;;;;4790136;30;20057;-85
2022/03/21 21:19:52;;;;;;;282.67;172.70;;;179.40;1740.80;;;;;;4790980;29;20039;-86
2022/03/21 21:22:55;;;;;;;284.40;162.35;;;179.40;1766.40;;;;;;4851868;29;20113;-84
2022/03/21 21:26:12;;;;;;;250.95;140.05;;;179.40;1766.40;;;;;;4873259;29;20116;-86
2022/03/21 21:28:43;;;;;;;225.95;132.30;;;179.40;1766.40;;;;;;4901321;29;20062;-86
2022/03/21 21:31:57;;;;;;;209.38;120.65;;;179.40;1766.40;;;;;;4898791;29;20025;-84
2022/03/21 21:35:35;;;;;;;226.65;125.70;;;179.40;1766.40;;;;;;4881931;29;20033;-87
2022/03/21 21:38:53;;;;;;;257.88;141.10;;;179.30;1766.40;;;;;;4808284;29;20532;-86
2022/03/21 21:41:59;;;;;;;252.45;138.23;;;179.20;1817.60;;;;;;4783690;29;20035;-88
2022/03/21 21:44:51;;;;;;;261.52;143.80;;;154.40;1817.60;;;;;;4796098;29;20022;-85
2022/03/21 21:47:52;;;;;;;248.48;143.02;;;154.10;1868.80;;;;;;4781471;30;20148;-84
2022/03/21 21:50:59;;;;;;;270.70;154.95;;;154.40;1843.20;;;;;;4767086;30;20178;-83